Latest Weather Observations for Moorabbin Airport

IDV60801

Issued at 11:03 pm EDT Saturday 18 November 2017 (issued every 30 minutes, with the page automatically refreshed every 10 minutes)

About weather observations | Map of weather stations | Latest weather observations for VIC | Other Formats
Station Details ID: 086077 Name: MOORABBIN AIRPORT Lat: -37.98 Lon: 145.10 Height: 12.1 m
Data from the previous 72 hours. | See also: Recent months at Moorabbin Airport
Date/Time
EDT
Temp
°C
App
Temp
°C
Dew
Point
°C
Rel
Hum
%
Delta-T
°C
Wind Press
QNH
hPa
Press
MSL
hPa
Rain since
9am
mm
Dir  Spd
km/h
Gust
km/h
Spd
kts
Gust
kts
18/11:00pm 17.5 18.7 14.8 84 1.6 SSW 2 7 1 4 1018.2 1018.2 0.2
18/10:30pm 17.8 18.0 14.7 82 1.8 SW 7 11 4 6 1018.0 1018.0 0.2
18/10:00pm 18.4 19.6 14.9 80 2.0 N 2 6 1 3 1017.7 1017.7 0.2
18/09:30pm 18.4 18.7 14.9 80 2.0 ENE 7 9 4 5 1017.3 1017.3 0.2
18/09:00pm 18.3 18.6 14.6 79 2.1 SE 6 9 3 5 1017.0 1017.0 0.2
18/08:30pm 19.6 19.1 15.0 75 2.7 NE 11 11 6 6 1016.8 1016.8 0.2
18/08:00pm 20.1 20.4 14.9 72 3.0 NNE 7 11 4 6 1016.6 1016.6 0.2
18/07:30pm 20.9 21.8 15.0 69 3.5 NNW 4 9 2 5 1016.5 1016.5 0.2
18/07:00pm 20.3 19.9 15.1 72 3.1 NE 11 17 6 9 1016.0 1016.0 0.2
18/06:30pm 20.1 20.0 14.9 72 3.0 NNE 9 15 5 8 1016.3 1016.3 0.2
18/06:00pm 20.1 18.0 15.1 73 2.9 N 20 28 11 15 1016.1 1016.1 0.2
18/05:45pm 19.7 17.1 15.8 78 2.3 N 24 32 13 17 1016.0 1016.0 0.2
18/05:30pm 19.7 16.4 14.9 74 2.8 N 26 35 14 19 1015.9 1015.9 0.2
18/05:26pm 20.1 16.3 14.7 71 3.2 N 28 35 15 19 1015.9 1015.9 0.2
18/05:00pm 24.3 20.2 11.6 45 7.2 ENE 24 43 13 23 1015.5 1015.5 0.2
18/04:30pm 28.1 25.6 14.0 42 8.4 SE 20 28 11 15 1014.6 1014.6 0.2
18/04:00pm 27.7 25.4 14.0 43 8.2 SE 19 24 10 13 1014.6 1014.6 0.2
18/03:30pm 28.2 25.8 14.4 42 8.3 SSE 20 30 11 16 1014.7 1014.7 0.2
18/03:00pm 27.8 26.6 15.1 46 7.7 SSE 15 22 8 12 1015.0 1015.0 0.2
18/02:30pm 25.9 24.8 15.3 52 6.4 SW 15 24 8 13 1015.2 1015.2 0.2
18/02:00pm 25.9 24.3 15.9 54 6.1 SSW 19 24 10 13 1015.5 1015.5 0.2
18/01:30pm 26.3 24.0 15.7 52 6.5 SSW 22 26 12 14 1015.7 1015.7 0.2
18/01:00pm 27.6 26.6 14.6 45 7.8 NE 13 20 7 11 1016.1 1016.1 0.2
18/12:30pm 26.8 26.0 13.9 45 7.7 NE 11 20 6 11 1016.1 1016.1 0.2
18/12:00pm 27.0 24.5 14.1 45 7.7 NNE 20 30 11 16 1016.2 1016.2 0.2
18/11:30am 26.1 25.1 14.6 49 6.9 NNE 13 22 7 12 1016.2 1016.2 0.2
18/11:00am 26.4 24.5 15.1 49 6.8 NNE 19 26 10 14 1016.3 1016.3 0.2
18/10:30am 25.6 23.8 14.4 50 6.7 NE 17 24 9 13 1016.4 1016.4 0.2
18/10:00am 24.5 23.3 14.0 52 6.2 E 13 19 7 10 1016.5 1016.5 0.2
18/09:30am 23.1 22.2 14.9 60 4.9 ESE 13 20 7 11 1016.7 1016.7 0.0
18/09:00am 21.7 21.2 14.8 65 4.1 E 11 13 6 7 1016.8 1016.8 7.2
18/08:30am 20.9 21.3 15.2 70 3.4 ESE 7 11 4 6 1016.6 1016.6 7.2
18/08:00am 19.7 21.9 16.5 82 1.9 CALM 0 7 0 4 1016.5 1016.5 7.2
18/07:30am 18.4 19.5 17.1 92 0.8 ESE 7 9 4 5 1016.3 1016.3 7.2
18/07:00am 16.6 17.5 16.1 97 0.3 SSE 6 9 3 5 1016.1 1016.1 7.2
18/06:30am 15.5 15.8 14.9 96 0.3 N 7 9 4 5 1015.7 1015.7 7.2
18/06:00am 15.4 16.4 14.3 93 0.6 N 2 9 1 5 1015.3 1015.3 7.2
18/05:30am 15.5 15.4 13.9 90 0.9 ESE 7 9 4 5 1015.0 1015.0 7.2
18/05:00am 16.2 15.5 14.2 88 1.1 E 11 11 6 6 1014.8 1014.8 7.2
18/04:30am 17.0 16.0 14.6 86 1.4 NNE 13 17 7 9 1015.2 1015.2 7.2
18/04:00am 17.1 17.7 13.2 78 2.2 NNW 2 7 1 4 1014.6 1014.6 7.2
18/03:50am 17.1 16.0 13.2 78 2.2 NW 11 17 6 9 1014.3 1014.3 7.2
18/03:35am 17.1 15.4 13.6 80 2.0 N 15 17 8 9 1014.5 1014.5 7.2
18/03:30am 17.2 16.0 14.1 82 1.8 N 13 17 7 9 1014.5 1014.5 6.6
18/03:00am 17.0 17.3 14.5 85 1.4 NW 6 7 3 4 1014.0 1014.0 6.4
18/02:30am 17.5 17.1 15.1 86 1.4 NE 11 15 6 8 1014.4 1014.4 6.4
18/02:00am 17.1 16.1 16.5 96 0.4 ENE 17 20 9 11 1014.4 1014.4 6.4
18/01:30am 16.2 17.9 15.1 93 0.6 CALM 0 0 0 0 1013.8 1013.8 6.4
18/01:00am 16.6 18.3 15.3 92 0.8 CALM 0 0 0 0 1014.0 1014.0 6.4
18/12:30am 17.1 18.3 15.8 92 0.8 NNE 4 6 2 3 1013.8 1013.8 6.4
18/12:00am 17.1 17.0 16.0 93 0.6 SE 11 13 6 7 1013.8 1013.8 6.4
 
Date/Time
EDT
Temp
°C
App
Temp
°C
Dew
Point
°C
Rel
Hum
%
Delta-T
°C
Wind Press
QNH
hPa
Press
MSL
hPa
Rain since
9am
mm
Dir  Spd
km/h
Gust
km/h
Spd
kts
Gust
kts
17/11:30pm 17.5 18.4 16.5 94 0.6 SE 7 9 4 5 1013.7 1013.7 6.4
17/11:00pm 17.5 18.5 16.4 93 0.7 NNE 6 9 3 5 1014.1 1014.1 6.4
17/10:30pm 16.6 17.1 15.1 91 0.9 NNW 6 7 3 4 1013.1 1013.1 6.4
17/10:00pm 17.0 17.5 15.0 88 1.2 NNW 6 7 3 4 1013.0 1013.0 6.4
17/09:30pm 17.5 18.8 15.1 86 1.4 NNE 2 6 1 3 1012.7 1012.7 6.4
17/09:00pm 17.7 18.8 14.6 82 1.8 SE 2 6 1 3 1012.8 1012.8 6.4
17/08:30pm 18.4 18.7 14.9 80 2.0 SE 7 9 4 5 1012.8 1012.8 6.4
17/08:00pm 19.0 19.0 15.3 79 2.2 SE 9 11 5 6 1012.7 1012.7 6.4
17/07:30pm 20.1 19.7 16.1 78 2.4 ESE 13 19 7 10 1012.5 1012.5 6.4
17/07:00pm 20.0 19.8 16.6 81 2.1 ESE 13 17 7 9 1012.2 1012.2 6.4
17/06:30pm 19.2 15.6 15.3 78 2.3 ESE 28 43 15 23 1012.3 1012.3 5.6
17/06:21pm 20.2 17.0 15.4 74 2.8 ESE 26 44 14 24 1012.4 1012.4 5.4
17/06:00pm 21.1 19.8 16.9 77 2.6 ESE 19 24 10 13 1012.3 1012.3 5.2
17/05:30pm 20.3 19.0 15.9 76 2.6 SE 17 22 9 12 1012.3 1012.3 3.2
17/05:14pm 20.5 17.9 14.8 70 3.3 SE 22 26 12 14 1012.3 1012.3 1.0
17/05:00pm 22.5 18.5 14.1 59 4.9 SSE 28 43 15 23 1012.3 1012.3 0.0
17/04:30pm 24.2 20.1 13.7 52 6.1 SE 28 35 15 19 1012.2 1012.2 0.0
17/04:00pm 23.7 20.8 14.1 55 5.6 SSE 22 32 12 17 1012.6 1012.6 0.0
17/03:30pm 22.9 20.8 15.2 62 4.6 SSE 20 28 11 15 1012.5 1012.5 0.0
17/03:00pm 21.2 19.0 14.8 67 3.8 S 20 28 11 15 1012.4 1012.4 0.0
17/02:30pm 22.8 20.2 13.3 55 5.5 SSW 19 26 10 14 1012.7 1012.7 0.0
17/02:00pm 24.9 24.4 12.8 47 7.0 NNE 7 17 4 9 1013.0 1013.0 0.0
17/01:30pm 23.3 20.3 12.0 49 6.4 NNW 19 26 10 14 1012.7 1012.7 0.0
17/01:00pm 23.4 19.7 11.5 47 6.7 NNW 22 32 12 17 1012.8 1012.8 0.0
17/12:30pm 24.2 22.7 15.4 58 5.3 W 17 24 9 13 1013.3 1013.3 0.0
17/12:00pm 23.3 23.0 15.4 61 4.7 SW 11 22 6 12 1013.0 1013.0 0.0
17/11:30am 24.2 22.7 14.3 54 5.9 ESE 15 24 8 13 1013.3 1013.3 0.0
17/11:00am 23.7 21.9 14.4 56 5.5 E 17 24 9 13 1013.4 1013.4 0.0
17/10:30am 23.2 22.7 13.9 56 5.4 ESE 9 17 5 9 1013.5 1013.5 0.0
17/10:00am 22.6 21.9 14.2 59 4.9 E 11 15 6 8 1013.7 1013.7 0.0
17/09:30am 22.5 22.8 14.9 62 4.5 ENE 7 13 4 7 1013.6 1013.6 0.0
17/09:00am 22.3 21.7 14.7 62 4.5 ENE 11 15 6 8 1013.6 1013.6 6.6
17/08:30am 20.9 20.6 14.3 66 3.8 E 9 11 5 6 1013.5 1013.5 6.6
17/08:00am 19.9 20.6 17.1 84 1.7 NE 9 11 5 6 1013.4 1013.4 6.6
17/07:30am 18.4 20.0 17.9 97 0.3 E 6 7 3 4 1013.3 1013.3 6.6
17/07:00am 16.7 17.6 16.7 100 0.0 ESE 7 9 4 5 1013.0 1013.0 6.6
17/06:30am 15.3 15.3 15.3 100 0.0 ESE 9 11 5 6 1012.8 1012.8 6.6
17/06:00am 15.2 16.4 15.0 99 0.1 E 2 9 1 5 1012.4 1012.4 6.6
17/05:30am 16.1 17.3 15.9 99 0.1 ESE 4 13 2 7 1012.1 1012.1 6.6
17/05:00am 17.0 19.4 17.0 100 0.0 CALM 0 2 0 1 1011.9 1011.9 6.6
17/04:30am 16.9 18.1 16.9 100 0.0 NNE 6 7 3 4 1011.9 1011.9 6.6
17/04:00am 16.9 17.9 16.9 100 0.0 N 7 9 4 5 1012.0 1012.0 6.6
17/03:30am 16.9 18.5 16.9 100 0.0 ESE 4 9 2 5 1012.1 1012.1 6.6
17/03:00am 16.9 17.9 16.9 100 0.0 ESE 7 7 4 4 1012.1 1012.1 6.6
17/02:30am 16.8 17.4 16.8 100 0.0 ESE 9 11 5 6 1012.1 1012.1 6.6
17/02:00am 16.5 17.9 16.5 100 0.0 SSE 4 9 2 5 1012.3 1012.3 6.6
17/01:30am 16.3 17.9 16.0 98 0.2 NNE 2 7 1 4 1012.6 1012.6 6.6
17/01:00am 16.2 16.9 15.7 97 0.3 SE 6 7 3 4 1012.5 1012.5 6.6
17/12:30am 16.3 16.9 15.7 96 0.4 ESE 7 9 4 5 1012.3 1012.3 6.6
17/12:00am 16.7 17.3 15.9 95 0.5 SE 7 9 4 5 1012.2 1012.2 6.6
 
Date/Time
EDT
Temp
°C
App
Temp
°C
Dew
Point
°C
Rel
Hum
%
Delta-T
°C
Wind Press
QNH
hPa
Press
MSL
hPa
Rain since
9am
mm
Dir  Spd
km/h
Gust
km/h
Spd
kts
Gust
kts
16/11:30pm 16.2 17.5 15.1 93 0.6 E 2 9 1 5 1011.9 1011.9 6.6
16/11:00pm 16.7 18.1 15.4 92 0.8 NNW 2 7 1 4 1011.9 1011.9 6.6
16/10:30pm 17.3 18.5 15.8 91 0.9 SE 4 9 2 5 1011.8 1011.8 6.6
16/10:00pm 17.6 18.4 15.8 89 1.1 SE 6 7 3 4 1011.8 1011.8 6.6
16/09:30pm 18.1 18.0 16.1 88 1.2 E 11 13 6 7 1011.7 1011.7 6.6
16/09:00pm 18.1 17.9 15.7 86 1.4 ESE 11 13 6 7 1011.5 1011.5 6.6
16/08:30pm 18.7 18.2 15.9 84 1.7 ESE 13 17 7 9 1011.3 1011.3 6.6
16/08:00pm 19.4 18.1 15.9 80 2.1 ESE 17 20 9 11 1011.0 1011.0 6.6
16/07:30pm 19.8 18.7 16.4 81 2.0 ESE 17 22 9 12 1011.1 1011.1 6.6
16/07:00pm 19.6 18.9 17.4 87 1.3 ESE 17 22 9 12 1010.7 1010.7 6.6
16/06:30pm 19.6 18.8 17.2 86 1.5 ESE 17 22 9 12 1010.5 1010.5 6.6
16/06:00pm 20.0 19.5 17.8 87 1.4 ESE 17 20 9 11 1010.5 1010.5 6.6
16/05:30pm 19.3 19.4 17.4 89 1.2 ESE 13 17 7 9 1010.4 1010.4 6.6
16/05:00pm 20.2 18.6 16.4 79 2.3 E 20 28 11 15 1010.3 1010.3 5.4
16/04:30pm 21.0 19.9 17.2 79 2.3 ESE 19 26 10 14 1010.1 1010.1 5.2
16/04:00pm 20.2 20.0 16.8 81 2.1 ESE 13 17 7 9 1010.1 1010.1 5.2
16/03:30pm 20.6 20.5 17.0 80 2.2 ENE 13 17 7 9 1010.1 1010.1 5.2
16/03:00pm 19.7 20.3 16.9 84 1.7 NE 9 11 5 6 1010.0 1010.0 5.2
16/02:30pm 19.2 18.9 17.3 89 1.2 ESE 15 19 8 10 1010.3 1010.3 5.0
16/02:00pm 19.8 19.9 17.4 86 1.5 E 13 17 7 9 1010.8 1010.8 4.4
16/01:30pm 20.2 20.1 17.0 82 1.9 E 13 19 7 10 1011.0 1011.0 3.4
16/01:00pm 20.1 21.1 17.7 86 1.5 ENE 9 15 5 8 1011.3 1011.3 3.2
16/12:30pm 19.6 19.5 17.9 90 1.0 E 15 20 8 11 1011.3 1011.3 3.2
16/12:00pm 19.0 18.1 18.3 96 0.4 SE 20 26 11 14 1011.0 1011.0 3.2
16/11:30am 18.9 18.7 17.7 93 0.7 SE 15 19 8 10 1011.2 1011.2 2.8
16/11:00am 19.3 19.5 17.6 90 1.0 ESE 13 15 7 8 1011.4 1011.4 2.0
16/10:30am 19.4 21.2 17.4 88 1.2 ENE 4 7 2 4 1011.4 1011.4 1.4
16/10:00am 19.1 19.2 16.5 85 1.6 NE 11 15 6 8 1011.4 1011.4 0.8
16/09:30am 19.4 20.4 16.8 85 1.6 E 7 9 4 5 1010.9 1010.9 0.2
16/09:00am 19.0 19.2 16.8 87 1.3 ENE 11 19 6 10 1010.8 1010.8 2.4
16/08:30am 19.0 18.8 17.5 91 0.9 ESE 15 20 8 11 1010.1 1010.1 2.4
16/08:00am 18.9 19.7 18.1 95 0.5 ESE 11 15 6 8 1010.1 1010.1 2.4
16/07:30am 18.2 19.1 17.6 96 0.4 E 9 11 5 6 1010.3 1010.3 2.4
16/07:00am 17.4 19.3 16.6 95 0.5 SSE 2 7 1 4 1010.4 1010.4 2.4
16/06:30am 17.6 18.2 16.8 95 0.5 ESE 9 11 5 6 1010.4 1010.4 2.2
16/06:00am 17.6 17.7 16.5 93 0.7 ESE 11 17 6 9 1010.3 1010.3 2.2
16/05:30am 18.0 19.6 16.9 93 0.7 SSW 4 6 2 3 1010.4 1010.4 2.2
16/05:00am 17.7 19.4 16.2 91 0.9 S 2 6 1 3 1010.3 1010.3 2.2
16/04:30am 17.9 18.2 16.1 89 1.1 SSW 9 11 5 6 1010.2 1010.2 2.0
16/04:00am 17.8 18.1 16.1 90 1.0 NW 9 13 5 7 1010.4 1010.4 2.0
16/03:30am 17.7 19.6 15.7 88 1.2 CALM 0 7 0 4 1010.2 1010.2 2.0
16/03:00am 17.8 17.9 15.4 86 1.4 SSE 9 11 5 6 1010.1 1010.1 2.0
16/02:30am 18.0 19.4 15.4 85 1.5 SE 2 6 1 3 1010.7 1010.7 2.0
16/02:00am 18.1 18.5 15.4 84 1.6 ESE 7 11 4 6 1010.8 1010.8 2.0
16/01:30am 18.4 18.1 15.5 83 1.7 E 11 13 6 7 1011.2 1011.2 2.0
16/01:00am 18.5 17.9 15.7 84 1.7 ESE 13 17 7 9 1011.4 1011.4 1.8
16/12:30am 18.7 18.6 15.9 84 1.7 ESE 11 15 6 8 1011.5 1011.5 1.8
16/12:00am 18.9 19.5 16.7 87 1.3 ESE 9 11 5 6 1011.9 1011.9 1.8
 
Date/Time
EDT
Temp
°C
App
Temp
°C
Dew
Point
°C
Rel
Hum
%
Delta-T
°C
Wind Press
QNH
hPa
Press
MSL
hPa
Rain since
9am
mm
Dir  Spd
km/h
Gust
km/h
Spd
kts
Gust
kts
15/11:30pm 18.8 18.8 17.1 90 1.0 ESE 13 17 7 9 1012.4 1012.4 1.8

Other Formats:

Comma delimited format used in spreadsheet applications
http://www.bom.gov.au/fwo/IDV60801/IDV60801.94870.axf

JavaScript Object Notation format (JSON) in row-major order
http://www.bom.gov.au/fwo/IDV60801/IDV60801.94870.json